LPPD/PDL METAR and TAF weather

Enter ICAO airport designator
Station Type Date Time Source
LPPD METAR 2021/01/20 22:00 UTC NOAA

LPPD 202200Z 26016KT 3000 BR FEW004 SCT012 16/16 Q1014


Station Type Date Time Source
LPPD Decoded METAR 2021/01/20 22:00 UTC NOAA

Ponta Delgada / Nordela Acores , Portugal (LPPD) 37-44N 025-42W 72M
Jan 20, 2021 - 05:00 PM EST / 2021.01.20 2200 UTC
Wind: from the W (260 degrees) at 18 MPH (16 KT):0
Visibility: 1 mile(s):0
Sky conditions: partly cloudy
Weather: mist
Temperature: 60 F (16 C)
Dew Point: 60 F (16 C)
Relative Humidity: 100%
Pressure (altimeter): 29.94 in. Hg (1014 hPa)
ob: LPPD 202200Z 26016KT 3000 BR FEW004 SCT012 16/16 Q1014
cycle: 22

Station Type Date Time Source
LPPD TAF 2021/01/20 18:18 UTC NOAA

TAF LPPD 201700Z 2018/2118 26013KT 9999 SCT006 SCT010
TEMPO 2018/2021 5000 DZ BR SCT004 BKN008 PROB30 2018/2021 2000 DZRA BR BKN002
BECMG 2021/2023 SCT012
TEMPO 2023/2107 BKN010
BECMG 2114/2116 30010KT

Example: see airport list